createdAt,value
2024-04-08T00:00:41.114Z,94834.00
2024-04-08T00:01:41.193Z,94837.00
2024-04-08T00:02:41.293Z,94840.00
2024-04-08T00:03:41.212Z,94833.00
2024-04-08T00:04:41.213Z,94837.00
2024-04-08T00:05:41.295Z,94850.00
2024-04-08T00:06:41.270Z,94846.00
2024-04-08T00:07:41.350Z,94841.00
2024-04-08T00:08:41.335Z,94842.00
2024-04-08T00:09:41.348Z,94843.00
2024-04-08T00:10:41.389Z,94835.00
2024-04-08T00:11:41.465Z,94829.00
2024-04-08T00:12:41.513Z,94828.00
2024-04-08T00:13:41.469Z,94836.00
2024-04-08T00:14:41.606Z,94841.00
2024-04-08T00:15:41.688Z,94835.00
2024-04-08T00:16:41.928Z,94835.00
2024-04-08T00:17:41.863Z,94842.00
2024-04-08T00:18:41.873Z,94844.00
2024-04-08T00:19:41.929Z,94845.00
2024-04-08T00:20:41.939Z,94845.00
2024-04-08T00:21:42.054Z,94848.00
2024-04-08T00:22:42.052Z,94848.00
2024-04-08T00:23:42.125Z,94840.00
2024-04-08T00:24:42.126Z,94825.00
2024-04-08T00:25:42.152Z,94814.00
2024-04-08T00:26:42.252Z,94829.00
2024-04-08T00:27:42.275Z,94837.00
2024-04-08T00:28:42.212Z,94838.00
2024-04-08T00:29:42.256Z,94835.00
2024-04-08T00:30:42.256Z,94826.00
2024-04-08T00:31:42.262Z,94819.00
2024-04-08T00:32:42.429Z,94818.00
2024-04-08T00:33:42.337Z,94816.00
2024-04-08T00:34:42.380Z,94811.00
2024-04-08T00:35:42.370Z,94819.00
2024-04-08T00:36:42.386Z,94822.00
2024-04-08T00:37:42.410Z,94815.00
2024-04-08T00:38:42.432Z,94812.00
2024-04-08T00:39:42.479Z,94815.00
2024-04-08T00:40:42.515Z,94822.00
2024-04-08T00:41:42.540Z,94825.00
2024-04-08T00:42:42.706Z,94819.00
2024-04-08T00:43:42.649Z,94816.00
2024-04-08T00:44:42.651Z,94817.00
2024-04-08T00:45:42.647Z,94821.00
2024-04-08T00:46:42.670Z,94829.00
2024-04-08T00:47:42.857Z,94829.00
2024-04-08T00:48:42.728Z,94823.00
2024-04-08T00:49:42.799Z,94812.00
2024-04-08T00:50:42.785Z,94813.00
2024-04-08T00:51:42.798Z,94822.00
2024-04-08T00:52:42.808Z,94827.00
2024-04-08T00:53:42.991Z,94822.00
2024-04-08T00:54:42.898Z,94821.00
2024-04-08T00:55:42.923Z,94822.00
2024-04-08T00:56:43.019Z,94817.00
2024-04-08T00:57:43.013Z,94820.00
2024-04-08T00:58:43.012Z,94821.00
2024-04-08T00:59:43.055Z,94822.00
2024-04-08T01:00:43.057Z,94827.00
2024-04-08T01:01:43.207Z,94828.00
2024-04-08T01:02:43.196Z,94824.00
2024-04-08T01:03:43.155Z,94825.00
2024-04-08T01:04:43.192Z,94829.00
2024-04-08T01:05:43.342Z,94834.00
2024-04-08T01:06:43.271Z,94834.00
2024-04-08T01:07:43.353Z,94827.00
2024-04-08T01:08:43.389Z,94827.00
2024-04-08T01:09:43.423Z,94824.00
2024-04-08T01:10:43.404Z,94819.00
2024-04-08T01:11:43.491Z,94809.00
2024-04-08T01:12:43.484Z,94798.00
2024-04-08T01:13:43.516Z,94802.00
2024-04-08T01:14:43.683Z,94811.00
2024-04-08T01:15:43.657Z,94818.00
2024-04-08T01:16:43.605Z,94815.00
2024-04-08T01:17:43.713Z,94812.00
2024-04-08T01:18:43.731Z,94818.00
2024-04-08T01:19:43.735Z,94819.00
2024-04-08T01:20:43.806Z,94826.00
2024-04-08T01:21:43.778Z,94824.00
2024-04-08T01:22:43.886Z,94817.00
2024-04-08T01:23:43.892Z,94809.00
2024-04-08T01:24:43.945Z,94813.00
2024-04-08T01:25:43.987Z,94823.00
2024-04-08T01:26:43.978Z,94818.00
2024-04-08T01:27:43.970Z,94811.00
2024-04-08T01:28:44.007Z,94808.00
2024-04-08T01:29:44.204Z,94803.00
2024-04-08T01:30:44.093Z,94804.00
2024-04-08T01:31:44.132Z,94811.00
2024-04-08T01:32:44.181Z,94813.00
2024-04-08T01:33:44.221Z,94809.00
2024-04-08T01:34:44.210Z,94805.00
2024-04-08T01:35:44.272Z,94802.00
2024-04-08T01:36:44.340Z,94809.00
2024-04-08T01:37:44.325Z,94815.00
2024-04-08T01:38:44.457Z,94812.00
2024-04-08T01:39:44.413Z,94802.00
2024-04-08T01:40:44.431Z,94799.00
2024-04-08T01:41:44.908Z,94805.00
2024-04-08T01:42:45.461Z,94807.00
2024-04-08T01:43:45.911Z,94806.00
2024-04-08T01:44:44.568Z,94803.00
2024-04-08T01:45:44.560Z,94806.00
2024-04-08T01:46:44.629Z,94802.00
2024-04-08T01:47:44.645Z,94798.00
2024-04-08T01:48:44.691Z,94794.00
2024-04-08T01:49:44.733Z,94784.00
2024-04-08T01:50:44.864Z,94784.00
2024-04-08T01:51:44.810Z,94786.00
2024-04-08T01:52:44.808Z,94795.00
2024-04-08T01:53:44.899Z,94794.00
2024-04-08T01:54:44.868Z,94791.00
2024-04-08T01:55:44.935Z,94791.00
2024-04-08T01:56:44.970Z,94792.00
2024-04-08T01:57:45.056Z,94790.00
2024-04-08T01:58:45.055Z,94792.00
2024-04-08T01:59:45.083Z,94790.00
2024-04-08T02:00:45.081Z,94783.00
2024-04-08T02:01:45.113Z,94779.00
2024-04-08T02:02:45.222Z,94774.00
2024-04-08T02:03:45.190Z,94784.00
2024-04-08T02:04:45.221Z,94790.00
2024-04-08T02:05:45.395Z,94787.00
2024-04-08T02:06:45.314Z,94790.00
2024-04-08T02:07:45.369Z,94792.00
2024-04-08T02:08:45.407Z,94787.00
2024-04-08T02:09:45.463Z,94778.00
2024-04-08T02:10:45.502Z,94788.00
2024-04-08T02:11:45.543Z,94784.00
2024-04-08T02:12:45.501Z,94779.00
2024-04-08T02:13:45.602Z,94767.00
2024-04-08T02:14:45.661Z,94769.00
2024-04-08T02:15:45.645Z,94780.00
2024-04-08T02:16:45.728Z,94782.00
2024-04-08T02:17:45.764Z,94779.00
2024-04-08T02:18:45.765Z,94774.00
2024-04-08T02:19:45.773Z,94771.00
2024-04-08T02:20:45.938Z,94772.00
2024-04-08T02:21:45.890Z,94778.00
2024-04-08T02:22:45.934Z,94780.00
2024-04-08T02:23:46.009Z,94784.00
2024-04-08T02:24:46.060Z,94784.00
2024-04-08T02:25:46.003Z,94781.00
2024-04-08T02:26:46.144Z,94779.00
2024-04-08T02:27:46.092Z,94787.00
2024-04-08T02:28:46.150Z,94789.00
2024-04-08T02:29:46.369Z,94784.00
2024-04-08T02:30:46.232Z,94782.00
2024-04-08T02:31:46.262Z,94782.00
2024-04-08T02:32:46.361Z,94784.00
2024-04-08T02:33:46.419Z,94778.00
2024-04-08T02:34:46.420Z,94769.00
2024-04-08T02:35:46.390Z,94771.00
2024-04-08T02:36:46.441Z,94776.00
2024-04-08T02:37:46.458Z,94777.00
2024-04-08T02:38:46.524Z,94777.00
2024-04-08T02:39:46.627Z,94771.00
2024-04-08T02:40:46.525Z,94767.00
2024-04-08T02:41:46.717Z,94766.00
2024-04-08T02:42:46.634Z,94766.00
2024-04-08T02:43:46.658Z,94769.00
2024-04-08T02:44:46.777Z,94766.00
2024-04-08T02:45:46.843Z,94768.00
2024-04-08T02:46:46.818Z,94773.00
2024-04-08T02:47:46.897Z,94773.00
2024-04-08T02:48:46.917Z,94767.00
2024-04-08T02:49:47.001Z,94761.00
2024-04-08T02:50:47.020Z,94757.00
2024-04-08T02:51:46.986Z,94764.00
2024-04-08T02:52:47.024Z,94766.00
2024-04-08T02:53:47.087Z,94763.00
2024-04-08T02:54:47.034Z,94759.00
2024-04-08T02:55:47.100Z,94760.00
2024-04-08T02:56:47.179Z,94769.00
2024-04-08T02:57:47.165Z,94771.00
2024-04-08T02:58:47.218Z,94764.00
2024-04-08T02:59:47.283Z,94761.00
2024-04-08T03:00:47.364Z,94756.00
2024-04-08T03:01:47.337Z,94755.00
2024-04-08T03:02:47.527Z,94747.00
2024-04-08T03:03:47.449Z,94751.00
2024-04-08T03:04:47.465Z,94756.00
2024-04-08T03:05:47.644Z,94751.00
2024-04-08T03:06:47.569Z,94746.00
2024-04-08T03:07:47.661Z,94745.00
2024-04-08T03:08:47.627Z,94742.00
2024-04-08T03:09:47.672Z,94731.00
2024-04-08T03:10:47.682Z,94723.00
2024-04-08T03:11:47.814Z,94740.00
2024-04-08T03:12:47.814Z,94736.00
2024-04-08T03:13:47.836Z,94738.00
2024-04-08T03:14:47.892Z,94730.00
2024-04-08T03:15:47.927Z,94728.00
2024-04-08T03:16:47.917Z,94736.00
2024-04-08T03:17:48.155Z,94734.00
2024-04-08T03:18:48.041Z,94739.00
2024-04-08T03:19:48.053Z,94740.00
2024-04-08T03:20:48.125Z,94737.00
2024-04-08T03:21:48.139Z,94732.00
2024-04-08T03:22:50.204Z,94729.00
2024-04-08T03:23:48.266Z,94731.00
2024-04-08T03:24:48.287Z,94728.00
2024-04-08T03:25:48.223Z,94723.00
2024-04-08T03:26:48.396Z,94734.00
2024-04-08T03:27:48.306Z,94736.00
2024-04-08T03:28:48.344Z,94736.00
2024-04-08T03:29:48.512Z,94732.00
2024-04-08T03:30:48.433Z,94728.00
2024-04-08T03:31:48.483Z,94729.00
2024-04-08T03:32:48.606Z,94721.00
2024-04-08T03:33:48.553Z,94715.00
2024-04-08T03:34:48.604Z,94720.00
2024-04-08T03:35:48.711Z,94718.00
2024-04-08T03:36:48.674Z,94725.00
2024-04-08T03:37:48.690Z,94722.00
2024-04-08T03:38:48.804Z,94731.00
2024-04-08T03:39:48.841Z,94739.00
2024-04-08T03:40:48.848Z,94741.00
2024-04-08T03:41:48.920Z,94736.00
2024-04-08T03:42:48.920Z,94730.00
2024-04-08T03:43:48.939Z,94722.00
2024-04-08T03:44:49.045Z,94718.00
2024-04-08T03:45:49.019Z,94721.00
2024-04-08T03:46:49.035Z,94729.00
2024-04-08T03:47:49.207Z,94727.00
2024-04-08T03:48:49.121Z,94728.00
2024-04-08T03:49:49.178Z,94728.00
2024-04-08T03:50:49.341Z,94727.00
2024-04-08T03:51:49.323Z,94721.00
2024-04-08T03:52:49.297Z,94721.00
2024-04-08T03:53:49.405Z,94720.00
2024-04-08T03:54:49.426Z,94712.00
2024-04-08T03:55:49.426Z,94708.00
2024-04-08T03:56:49.536Z,94714.00
2024-04-08T03:57:49.475Z,94712.00
2024-04-08T03:58:49.549Z,94706.00
2024-04-08T03:59:49.654Z,94710.00
2024-04-08T04:00:49.644Z,94709.00
2024-04-08T04:01:49.665Z,94709.00
2024-04-08T04:02:49.802Z,94710.00
2024-04-08T04:03:49.731Z,94707.00
2024-04-08T04:04:49.793Z,94717.00
2024-04-08T04:05:49.890Z,94715.00
2024-04-08T04:06:49.848Z,94717.00
2024-04-08T04:07:49.848Z,94722.00
2024-04-08T04:08:49.962Z,94720.00
2024-04-08T04:09:49.960Z,94716.00
2024-04-08T04:10:49.978Z,94707.00
2024-04-08T04:11:50.102Z,94707.00
2024-04-08T04:12:50.092Z,94712.00
2024-04-08T04:13:50.106Z,94719.00
2024-04-08T04:14:50.205Z,94720.00
2024-04-08T04:15:50.174Z,94720.00
2024-04-08T04:16:50.180Z,94715.00
2024-04-08T04:17:50.313Z,94715.00
2024-04-08T04:18:57.769Z,94722.00
2024-04-08T04:19:57.795Z,94724.00
2024-04-08T04:20:57.745Z,94726.00
2024-04-08T04:21:57.725Z,94722.00
2024-04-08T04:22:57.740Z,94717.00
2024-04-08T04:23:57.771Z,94714.00
2024-04-08T04:24:57.742Z,94713.00
2024-04-08T04:25:57.772Z,94715.00
2024-04-08T04:26:57.784Z,94725.00
2024-04-08T04:27:57.766Z,94726.00
2024-04-08T04:28:57.805Z,94717.00
2024-04-08T04:29:57.804Z,94706.00
2024-04-08T04:31:05.580Z,94710.00
2024-04-08T04:32:05.284Z,94719.00
2024-04-08T04:33:05.307Z,94724.00
2024-04-08T04:34:05.291Z,94722.00
2024-04-08T04:35:05.334Z,94718.00
2024-04-08T04:36:05.303Z,94719.00
2024-04-08T04:37:05.316Z,94719.00
2024-04-08T04:38:05.303Z,94724.00
2024-04-08T04:39:05.326Z,94725.00
2024-04-08T04:40:05.397Z,94723.00
2024-04-08T04:41:05.347Z,94720.00
2024-04-08T04:42:05.376Z,94724.00
2024-04-08T04:43:05.308Z,94724.00
2024-04-08T04:44:05.313Z,94729.00
2024-04-08T04:45:05.385Z,94723.00
2024-04-08T04:46:05.331Z,94716.00
2024-04-08T04:47:05.361Z,94712.00
2024-04-08T04:48:05.462Z,94724.00
2024-04-08T04:49:05.318Z,94730.00
2024-04-08T04:50:05.371Z,94722.00
2024-04-08T04:51:05.400Z,94720.00
2024-04-08T04:52:05.369Z,94719.00
2024-04-08T04:53:05.327Z,94721.00
2024-04-08T04:54:05.383Z,94718.00
2024-04-08T04:55:05.331Z,94713.00
2024-04-08T04:56:05.345Z,94710.00
2024-04-08T04:57:05.352Z,94712.00
2024-04-08T04:58:05.350Z,94719.00
2024-04-08T04:59:05.376Z,94720.00
2024-04-08T05:00:05.363Z,94723.00
2024-04-08T05:01:05.372Z,94726.00
2024-04-08T05:02:05.364Z,94721.00
2024-04-08T05:03:05.338Z,94720.00
2024-04-08T05:04:05.410Z,94723.00
2024-04-08T05:05:05.376Z,94725.00
2024-04-08T05:06:05.412Z,94727.00
2024-04-08T05:07:05.469Z,94730.00
2024-04-08T05:08:05.531Z,94731.00
2024-04-08T05:09:05.555Z,94733.00
2024-04-08T05:10:05.640Z,94734.00
2024-04-08T05:11:07.307Z,94734.00
2024-04-08T05:12:05.674Z,94730.00
2024-04-08T05:13:05.674Z,94732.00
2024-04-08T05:14:05.701Z,94731.00
2024-04-08T05:15:05.688Z,94732.00
2024-04-08T05:16:05.659Z,94732.00
2024-04-08T05:17:05.717Z,94735.00
2024-04-08T05:18:08.480Z,94735.00
2024-04-08T05:19:05.687Z,94734.00
2024-04-08T05:20:05.666Z,94732.00
2024-04-08T05:21:05.692Z,94735.00
2024-04-08T05:22:05.687Z,94741.00
2024-04-08T05:23:05.688Z,94744.00
2024-04-08T05:24:05.718Z,94744.00
2024-04-08T05:25:05.692Z,94743.00
2024-04-08T05:26:05.692Z,94743.00
2024-04-08T05:27:05.777Z,94743.00
2024-04-08T05:28:05.709Z,94738.00
2024-04-08T05:29:05.748Z,94739.00
2024-04-08T05:30:05.784Z,94743.00
2024-04-08T05:31:05.730Z,94744.00
2024-04-08T05:32:05.752Z,94745.00
2024-04-08T05:33:05.815Z,94741.00
2024-04-08T05:34:05.747Z,94745.00
2024-04-08T05:35:05.726Z,94745.00
2024-04-08T05:36:05.757Z,94748.00
2024-04-08T05:37:05.735Z,94746.00
2024-04-08T05:38:05.758Z,94745.00
2024-04-08T05:39:05.771Z,94740.00
2024-04-08T05:40:05.742Z,94740.00
2024-04-08T05:41:05.797Z,94739.00
2024-04-08T05:42:05.712Z,94741.00
2024-04-08T05:43:06.043Z,94744.00
2024-04-08T05:44:06.565Z,94747.00
2024-04-08T05:45:05.928Z,94746.00
2024-04-08T05:46:05.755Z,94745.00
2024-04-08T05:47:05.777Z,94741.00
2024-04-08T05:48:05.891Z,94740.00
2024-04-08T05:49:05.787Z,94748.00
2024-04-08T05:50:05.982Z,94752.00
2024-04-08T05:51:05.790Z,94753.00
2024-04-08T05:52:05.820Z,94751.00
2024-04-08T05:53:06.727Z,94752.00
2024-04-08T05:54:07.551Z,94753.00
2024-04-08T05:55:05.765Z,94754.00
2024-04-08T05:56:07.560Z,94751.00
2024-04-08T05:57:06.055Z,94747.00
2024-04-08T05:58:05.758Z,94743.00
2024-04-08T05:59:06.940Z,94738.00
2024-04-08T06:00:06.104Z,94743.00
2024-04-08T06:01:05.826Z,94743.00
2024-04-08T06:02:05.827Z,94748.00
2024-04-08T06:03:06.355Z,94749.00
2024-04-08T06:04:05.760Z,94748.00
2024-04-08T06:05:05.858Z,94747.00
2024-04-08T06:06:05.827Z,94747.00
2024-04-08T06:07:05.796Z,94748.00
2024-04-08T06:08:05.780Z,94750.00
2024-04-08T06:09:06.095Z,94753.00
2024-04-08T06:10:05.776Z,94755.00
2024-04-08T06:11:05.832Z,94754.00
2024-04-08T06:12:05.954Z,94752.00
2024-04-08T06:13:06.659Z,94756.00
2024-04-08T06:14:05.847Z,94753.00
2024-04-08T06:15:05.843Z,94752.00
2024-04-08T06:16:05.963Z,94753.00
2024-04-08T06:17:06.074Z,94753.00
2024-04-08T06:18:06.063Z,94749.00
2024-04-08T06:19:05.959Z,94751.00
2024-04-08T06:20:05.979Z,94752.00
2024-04-08T06:21:06.034Z,94751.00
2024-04-08T06:22:06.107Z,94754.00
2024-04-08T06:23:06.021Z,94749.00
2024-04-08T06:24:06.114Z,94747.00
2024-04-08T06:25:06.638Z,94740.00
2024-04-08T06:26:06.228Z,94746.00
2024-04-08T06:27:06.214Z,94762.00
2024-04-08T06:28:06.316Z,94767.00
2024-04-08T06:29:06.128Z,94772.00
2024-04-08T06:30:06.644Z,94763.00
2024-04-08T06:31:06.572Z,94756.00
2024-04-08T06:32:06.150Z,94756.00
2024-04-08T06:33:06.219Z,94765.00
2024-04-08T06:34:06.173Z,94767.00
2024-04-08T06:35:06.264Z,94767.00
2024-04-08T06:36:06.238Z,94760.00
2024-04-08T06:37:06.586Z,94762.00
2024-04-08T06:38:06.219Z,94767.00
2024-04-08T06:39:06.564Z,94768.00
2024-04-08T06:40:06.316Z,94765.00
2024-04-08T06:41:06.531Z,94761.00
2024-04-08T06:42:06.357Z,94756.00
2024-04-08T06:43:06.425Z,94751.00
2024-04-08T06:44:07.387Z,94748.00
2024-04-08T06:45:09.210Z,94759.00
2024-04-08T06:46:06.714Z,94765.00
2024-04-08T06:47:06.678Z,94767.00
2024-04-08T06:48:06.484Z,94771.00
2024-04-08T06:49:06.462Z,94771.00
2024-04-08T06:50:06.472Z,94769.00
2024-04-08T06:51:06.593Z,94764.00
2024-04-08T06:52:06.714Z,94761.00
2024-04-08T06:53:06.517Z,94761.00
2024-04-08T06:54:06.515Z,94765.00
2024-04-08T06:55:06.537Z,94764.00
2024-04-08T06:56:06.500Z,94765.00
2024-04-08T06:57:06.785Z,94767.00
2024-04-08T06:58:07.138Z,94769.00
2024-04-08T06:59:06.456Z,94767.00
2024-04-08T07:00:06.612Z,94772.00
2024-04-08T07:01:06.703Z,94772.00
2024-04-08T07:02:06.512Z,94774.00
2024-04-08T07:03:06.506Z,94780.00
2024-04-08T07:04:06.688Z,94776.00
2024-04-08T07:05:06.404Z,94764.00
2024-04-08T07:06:06.538Z,94754.00
2024-04-08T07:07:06.545Z,94751.00
2024-04-08T07:08:06.592Z,94758.00
2024-04-08T07:09:06.479Z,94755.00
2024-04-08T07:10:06.454Z,94764.00
2024-04-08T07:11:06.668Z,94771.00
2024-04-08T07:12:06.472Z,94776.00
2024-04-08T07:13:06.566Z,94775.00
2024-04-08T07:14:06.465Z,94770.00
2024-04-08T07:15:07.206Z,94765.00
2024-04-08T07:16:06.441Z,94765.00
2024-04-08T07:17:06.491Z,94765.00
2024-04-08T07:18:06.566Z,94773.00
2024-04-08T07:19:06.578Z,94770.00
2024-04-08T07:20:08.044Z,94768.00
2024-04-08T07:21:06.680Z,94768.00
2024-04-08T07:22:06.540Z,94770.00
2024-04-08T07:23:06.529Z,94769.00
2024-04-08T07:24:07.083Z,94755.00
2024-04-08T07:25:06.553Z,94748.00
2024-04-08T07:26:06.443Z,94748.00
2024-04-08T07:27:06.623Z,94753.00
2024-04-08T07:28:06.548Z,94758.00
2024-04-08T07:29:06.472Z,94742.00
2024-04-08T07:30:06.672Z,94720.00
2024-04-08T07:31:06.464Z,94725.00
2024-04-08T07:32:06.489Z,94734.00
2024-04-08T07:33:06.568Z,94738.00
2024-04-08T07:34:06.560Z,94738.00
2024-04-08T07:35:06.496Z,94736.00
2024-04-08T07:36:06.555Z,94713.00
2024-04-08T07:37:06.578Z,94705.00
2024-04-08T07:38:06.646Z,94733.00
2024-04-08T07:39:11.673Z,94722.00
2024-04-08T07:40:07.734Z,94700.00
2024-04-08T07:41:06.744Z,94708.00
2024-04-08T07:42:06.883Z,94721.00
2024-04-08T07:43:06.733Z,94705.00
2024-04-08T07:44:07.050Z,94701.00
2024-04-08T07:45:06.844Z,94717.00
2024-04-08T07:46:06.777Z,94728.00
2024-04-08T07:47:07.513Z,94722.00
2024-04-08T07:48:06.821Z,94711.00
2024-04-08T07:49:07.536Z,94707.00
2024-04-08T07:50:07.119Z,94701.00
2024-04-08T07:51:07.046Z,94702.00
2024-04-08T07:52:06.987Z,94716.00
2024-04-08T07:53:07.155Z,94724.00
2024-04-08T07:54:07.250Z,94711.00
2024-04-08T07:55:07.560Z,94707.00
2024-04-08T07:56:07.176Z,94710.00
2024-04-08T07:57:07.300Z,94718.00
2024-04-08T07:58:07.246Z,94708.00
2024-04-08T07:59:07.384Z,94700.00
2024-04-08T08:00:07.330Z,94699.00
2024-04-08T08:01:07.531Z,94708.00
2024-04-08T08:02:07.386Z,94711.00
2024-04-08T08:03:07.422Z,94711.00
2024-04-08T08:04:07.421Z,94707.00
2024-04-08T08:05:07.694Z,94703.00
2024-04-08T08:06:09.803Z,94702.00
2024-04-08T08:07:08.055Z,94692.00
2024-04-08T08:08:07.654Z,94696.00
2024-04-08T08:09:07.806Z,94694.00
2024-04-08T08:10:07.827Z,94697.00
2024-04-08T08:11:07.774Z,94691.00
2024-04-08T08:12:08.049Z,94686.00
2024-04-08T08:13:11.193Z,94686.00
2024-04-08T08:14:07.807Z,94691.00
2024-04-08T08:15:07.880Z,94689.00
2024-04-08T08:16:08.390Z,94692.00
2024-04-08T08:17:08.026Z,94692.00
2024-04-08T08:18:07.918Z,94692.00
2024-04-08T08:19:07.983Z,94695.00
2024-04-08T08:20:07.839Z,94690.00
2024-04-08T08:21:07.986Z,94687.00
2024-04-08T08:22:08.069Z,94689.00
2024-04-08T08:23:07.808Z,94693.00
2024-04-08T08:24:07.929Z,94694.00
2024-04-08T08:25:07.834Z,94692.00
2024-04-08T08:26:07.840Z,94685.00
2024-04-08T08:27:08.112Z,94690.00
2024-04-08T08:28:07.875Z,94690.00
2024-04-08T08:29:07.852Z,94695.00
2024-04-08T08:30:08.537Z,94697.00
2024-04-08T08:31:07.952Z,94700.00
2024-04-08T08:32:08.015Z,94701.00
2024-04-08T08:33:07.967Z,94698.00
2024-04-08T08:34:07.862Z,94701.00
2024-04-08T08:35:07.821Z,94696.00
2024-04-08T08:36:07.992Z,94692.00
2024-04-08T08:37:07.852Z,94691.00
2024-04-08T08:38:07.870Z,94692.00
2024-04-08T08:39:08.039Z,94697.00
2024-04-08T08:40:09.490Z,94697.00
2024-04-08T08:41:08.569Z,94690.00
2024-04-08T08:42:07.938Z,94680.00
2024-04-08T08:43:08.569Z,94685.00
2024-04-08T08:44:08.598Z,94686.00
2024-04-08T08:45:08.134Z,94674.00
2024-04-08T08:46:08.568Z,94684.00
2024-04-08T08:47:08.094Z,94664.00
2024-04-08T08:48:08.201Z,94666.00
2024-04-08T08:49:09.070Z,94656.00
2024-04-08T08:50:08.143Z,94660.00
2024-04-08T08:51:08.348Z,94656.00
2024-04-08T08:52:08.600Z,94665.00
2024-04-08T08:53:09.049Z,94676.00
2024-04-08T08:54:08.650Z,94677.00
2024-04-08T08:55:09.055Z,94677.00
2024-04-08T08:56:08.186Z,94670.00
2024-04-08T08:57:08.398Z,94670.00
2024-04-08T08:58:08.254Z,94666.00
2024-04-08T08:59:08.590Z,94666.00
2024-04-08T09:00:08.520Z,94661.00
2024-04-08T09:01:08.426Z,94651.00
2024-04-08T09:02:10.050Z,94661.00
2024-04-08T09:03:09.984Z,94662.00
2024-04-08T09:04:10.683Z,94658.00
2024-04-08T09:05:08.532Z,94656.00
2024-04-08T09:06:09.137Z,94651.00
2024-04-08T09:07:09.037Z,94657.00
2024-04-08T09:08:08.847Z,94662.00
2024-04-08T09:09:08.558Z,94662.00
2024-04-08T09:10:09.372Z,94660.00
2024-04-08T09:11:08.456Z,94652.00
2024-04-08T09:12:08.614Z,94651.00
2024-04-08T09:13:08.410Z,94653.00
2024-04-08T09:14:08.431Z,94659.00
2024-04-08T09:15:09.090Z,94652.00
2024-04-08T09:16:08.430Z,94649.00
2024-04-08T09:17:08.509Z,94648.00
2024-04-08T09:18:12.036Z,94642.00
2024-04-08T09:19:08.453Z,94649.00
2024-04-08T09:20:10.283Z,94652.00
2024-04-08T09:21:33.451Z,94652.00
2024-04-08T09:22:08.468Z,94644.00
2024-04-08T09:23:08.404Z,94637.00
2024-04-08T09:24:08.474Z,94636.00
2024-04-08T09:25:08.484Z,94637.00
2024-04-08T09:26:08.412Z,94637.00
2024-04-08T09:27:08.523Z,94633.00
2024-04-08T09:28:08.490Z,94629.00
2024-04-08T09:29:08.409Z,94638.00
2024-04-08T09:30:09.408Z,94631.00
2024-04-08T09:31:08.514Z,94636.00
2024-04-08T09:32:08.474Z,94629.00
2024-04-08T09:33:08.505Z,94628.00
2024-04-08T09:34:08.529Z,94631.00
2024-04-08T09:35:08.477Z,94631.00
2024-04-08T09:36:08.543Z,94635.00
2024-04-08T09:37:08.423Z,94639.00
2024-04-08T09:38:08.446Z,94635.00
2024-04-08T09:39:08.593Z,94632.00
2024-04-08T09:40:08.468Z,94632.00
2024-04-08T09:41:08.426Z,94638.00
2024-04-08T09:42:08.557Z,94641.00
2024-04-08T09:43:09.127Z,94639.00
2024-04-08T09:44:08.460Z,94635.00
2024-04-08T09:45:08.569Z,94632.00
2024-04-08T09:46:08.493Z,94630.00
2024-04-08T09:47:08.459Z,94630.00
2024-04-08T09:48:09.073Z,94631.00
2024-04-08T09:49:17.917Z,94625.00
2024-04-08T09:50:09.444Z,94617.00
2024-04-08T09:51:08.516Z,94618.00
2024-04-08T09:52:08.634Z,94620.00
2024-04-08T09:53:08.514Z,94623.00
2024-04-08T09:54:08.587Z,94627.00
2024-04-08T09:55:08.560Z,94622.00
2024-04-08T09:56:09.770Z,94622.00
2024-04-08T09:57:08.521Z,94620.00
2024-04-08T09:58:08.564Z,94613.00
2024-04-08T09:59:08.587Z,94613.00
2024-04-08T10:00:08.663Z,94615.00
2024-04-08T10:01:08.648Z,94621.00
2024-04-08T10:02:10.050Z,94627.00
2024-04-08T10:03:08.994Z,94620.00
2024-04-08T10:04:08.806Z,94613.00
2024-04-08T10:05:08.832Z,94602.00
2024-04-08T10:06:08.913Z,94595.00
2024-04-08T10:07:08.898Z,94597.00
2024-04-08T10:08:08.931Z,94595.00
2024-04-08T10:09:09.069Z,94594.00
2024-04-08T10:10:08.959Z,94587.00
2024-04-08T10:11:08.966Z,94583.00
2024-04-08T10:12:09.539Z,94583.00
2024-04-08T10:13:08.988Z,94580.00
2024-04-08T10:14:09.029Z,94585.00
2024-04-08T10:15:09.215Z,94583.00
2024-04-08T10:16:09.030Z,94584.00
2024-04-08T10:17:09.034Z,94587.00
2024-04-08T10:18:10.156Z,94589.00
2024-04-08T10:19:09.117Z,94590.00
2024-04-08T10:20:09.175Z,94581.00
2024-04-08T10:21:09.174Z,94584.00
2024-04-08T10:22:09.252Z,94588.00
2024-04-08T10:23:09.460Z,94586.00
2024-04-08T10:24:09.400Z,94578.00
2024-04-08T10:25:09.424Z,94573.00
2024-04-08T10:26:11.015Z,94574.00
2024-04-08T10:27:09.780Z,94572.00
2024-04-08T10:28:09.697Z,94574.00
2024-04-08T10:29:09.659Z,94576.00
2024-04-08T10:30:10.104Z,94569.00
2024-04-08T10:31:10.136Z,94569.00
2024-04-08T10:32:09.847Z,94573.00
2024-04-08T10:33:10.075Z,94572.00
2024-04-08T10:34:09.991Z,94565.00
2024-04-08T10:35:10.053Z,94564.00
2024-04-08T10:36:10.549Z,94565.00
2024-04-08T10:37:10.173Z,94562.00
2024-04-08T10:38:10.223Z,94560.00
2024-04-08T10:39:10.418Z,94559.00
2024-04-08T10:40:10.489Z,94563.00
2024-04-08T10:41:10.567Z,94568.00
2024-04-08T10:42:10.687Z,94564.00
2024-04-08T10:43:10.550Z,94561.00
2024-04-08T10:44:10.618Z,94563.00
2024-04-08T10:45:11.358Z,94568.00
2024-04-08T10:46:10.747Z,94571.00
2024-04-08T10:47:10.942Z,94568.00
2024-04-08T10:48:11.094Z,94563.00
2024-04-08T10:49:10.912Z,94559.00
2024-04-08T10:50:11.487Z,94556.00
2024-04-08T10:51:11.137Z,94557.00
2024-04-08T10:52:11.146Z,94556.00
2024-04-08T10:53:11.291Z,94544.00
2024-04-08T10:54:11.536Z,94539.00
2024-04-08T10:55:11.249Z,94546.00
2024-04-08T10:56:12.098Z,94549.00
2024-04-08T10:57:11.437Z,94546.00
2024-04-08T10:58:11.394Z,94550.00
2024-04-08T10:59:14.786Z,94542.00
2024-04-08T11:00:11.581Z,94536.00
2024-04-08T11:01:11.456Z,94530.00
2024-04-08T11:02:11.929Z,94532.00
2024-04-08T11:03:11.531Z,94529.00
2024-04-08T11:04:11.477Z,94522.00
2024-04-08T11:05:11.432Z,94527.00
2024-04-08T11:06:11.811Z,94537.00
2024-04-08T11:07:11.490Z,94521.00
2024-04-08T11:08:11.442Z,94514.00
2024-04-08T11:09:11.672Z,94521.00
2024-04-08T11:10:11.989Z,94528.00
2024-04-08T11:11:12.009Z,94519.00
2024-04-08T11:12:11.583Z,94506.00
2024-04-08T11:13:11.455Z,94512.00
2024-04-08T11:14:12.490Z,94523.00
2024-04-08T11:15:12.113Z,94513.00
2024-04-08T11:16:11.910Z,94520.00
2024-04-08T11:17:11.526Z,94511.00
2024-04-08T11:18:11.644Z,94506.00
2024-04-08T11:19:12.509Z,94510.00
2024-04-08T11:20:11.476Z,94503.00
2024-04-08T11:21:11.589Z,94506.00
2024-04-08T11:22:11.443Z,94507.00
2024-04-08T11:23:11.448Z,94491.00
2024-04-08T11:24:11.594Z,94485.00
2024-04-08T11:25:11.471Z,94473.00
2024-04-08T11:26:11.475Z,94491.00
2024-04-08T11:27:11.571Z,94505.00
2024-04-08T11:28:11.498Z,94511.00
2024-04-08T11:29:11.544Z,94494.00
2024-04-08T11:30:11.595Z,94487.00
2024-04-08T11:31:11.518Z,94492.00
2024-04-08T11:32:11.520Z,94487.00
2024-04-08T11:33:11.579Z,94491.00
2024-04-08T11:34:11.549Z,94481.00
2024-04-08T11:35:11.524Z,94485.00
2024-04-08T11:36:11.550Z,94484.00
2024-04-08T11:37:12.110Z,94475.00
2024-04-08T11:38:21.568Z,94492.00
2024-04-08T11:39:12.515Z,94495.00
2024-04-08T11:40:11.537Z,94482.00
2024-04-08T11:41:12.471Z,94473.00
2024-04-08T11:42:11.592Z,94473.00
2024-04-08T11:43:11.678Z,94483.00
2024-04-08T11:44:11.798Z,94493.00
2024-04-08T11:45:11.699Z,94476.00